createdAt,value
2018-02-01T00:00:28.004Z,48.63
2018-02-01T00:02:53.808Z,48.86
2018-02-01T00:05:19.752Z,49.03
2018-02-01T00:07:45.525Z,48.63
2018-02-01T00:10:12.265Z,48.85
2018-02-01T00:12:38.065Z,49.09
2018-02-01T00:15:03.901Z,49.25
2018-02-01T00:17:29.673Z,49.30
2018-02-01T00:19:55.481Z,49.02
2018-02-01T00:22:21.335Z,48.77
2018-02-01T00:24:47.103Z,48.41
2018-02-01T00:27:12.881Z,49.20
2018-02-01T00:29:38.660Z,48.62
2018-02-01T00:32:04.438Z,48.94
2018-02-01T00:34:30.202Z,49.25
2018-02-01T00:39:42.350Z,49.67
2018-02-01T00:42:08.121Z,49.33
2018-02-01T00:44:33.921Z,49.44
2018-02-01T00:46:59.690Z,49.54
2018-02-01T00:49:25.501Z,49.22
2018-02-01T00:51:51.265Z,49.57
2018-02-01T00:54:17.034Z,49.42
2018-02-01T00:56:43.633Z,48.91
2018-02-01T00:59:09.394Z,49.35
2018-02-01T01:01:35.177Z,48.77
2018-02-01T01:04:01.013Z,48.81
2018-02-01T01:06:26.840Z,48.39
2018-02-01T01:08:52.629Z,48.29
2018-02-01T01:11:18.401Z,49.21
2018-02-01T01:13:44.169Z,48.79
2018-02-01T01:16:09.974Z,48.86
2018-02-01T01:18:36.589Z,49.02
2018-02-01T01:21:02.357Z,48.76
2018-02-01T01:23:28.128Z,48.25
2018-02-01T01:25:53.928Z,47.72
2018-02-01T01:28:19.697Z,48.43
2018-02-01T01:30:45.469Z,48.14
2018-02-01T01:33:11.241Z,48.29
2018-02-01T01:35:37.014Z,48.27
2018-02-01T01:38:02.777Z,48.03
2018-02-01T01:40:28.538Z,48.64
2018-02-01T01:42:54.312Z,47.35
2018-02-01T01:45:20.080Z,47.93
2018-02-01T01:47:45.842Z,48.04
2018-02-01T01:50:11.620Z,47.30
2018-02-01T01:52:37.573Z,47.57
2018-02-01T01:55:04.358Z,48.40
2018-02-01T01:57:30.153Z,48.44
2018-02-01T01:59:55.914Z,48.43
2018-02-01T02:02:22.704Z,48.48
2018-02-01T02:04:49.492Z,49.26
2018-02-01T02:07:16.241Z,48.89
2018-02-01T02:09:42.049Z,48.81
2018-02-01T02:12:08.716Z,48.60
2018-02-01T02:14:35.461Z,48.76
2018-02-01T02:17:01.446Z,48.89
2018-02-01T02:19:28.196Z,47.78
2018-02-01T02:21:55.041Z,48.63
2018-02-01T02:24:21.780Z,48.74
2018-02-01T02:26:48.608Z,48.18
2018-02-01T02:29:14.388Z,48.79
2018-02-01T02:31:41.078Z,49.02
2018-02-01T02:34:07.864Z,48.43
2018-02-01T02:36:34.671Z,48.39
2018-02-01T02:39:00.445Z,48.70
2018-02-01T02:41:27.209Z,48.49
2018-02-01T02:43:53.922Z,48.83
2018-02-01T02:46:20.684Z,48.71
2018-02-01T02:48:46.489Z,48.12
2018-02-01T02:51:12.260Z,48.73
2018-02-01T02:53:38.066Z,49.01
2018-02-01T02:56:04.721Z,48.72
2018-02-01T02:58:30.495Z,48.38
2018-02-01T03:00:56.360Z,48.56
2018-02-01T03:03:22.124Z,47.05
2018-02-01T03:05:47.929Z,47.74
2018-02-01T03:08:13.695Z,47.29
2018-02-01T03:10:39.462Z,47.21
2018-02-01T03:13:05.229Z,48.47
2018-02-01T03:15:31.002Z,47.67
2018-02-01T03:17:57.645Z,48.46
2018-02-01T03:20:23.444Z,47.43
2018-02-01T03:22:50.076Z,47.85
2018-02-01T03:25:15.840Z,47.37
2018-02-01T03:27:42.556Z,48.47
2018-02-01T03:30:08.340Z,48.02
2018-02-01T03:32:34.118Z,48.56
2018-02-01T03:35:00.836Z,48.09
2018-02-01T03:37:26.600Z,47.50
2018-02-01T03:39:52.368Z,47.68
2018-02-01T03:42:19.105Z,48.34
2018-02-01T03:44:45.877Z,48.25
2018-02-01T03:47:11.654Z,47.74
2018-02-01T03:49:37.421Z,48.38
2018-02-01T03:52:04.213Z,47.63
2018-02-01T03:54:29.982Z,48.09
2018-02-01T03:56:55.768Z,47.35
2018-02-01T03:59:22.349Z,47.38
2018-02-01T04:01:49.085Z,47.54
2018-02-01T04:04:14.986Z,48.03
2018-02-01T04:06:40.789Z,48.49
2018-02-01T04:09:06.556Z,47.98
2018-02-01T04:11:32.320Z,48.43
2018-02-01T04:13:59.022Z,47.73
2018-02-01T04:16:24.937Z,48.31
2018-02-01T04:18:50.701Z,47.74
2018-02-01T04:21:16.502Z,48.07
2018-02-01T04:23:42.269Z,48.71
2018-02-01T04:26:08.037Z,48.41
2018-02-01T04:28:33.806Z,47.67
2018-02-01T04:30:59.609Z,47.90
2018-02-01T04:33:25.417Z,48.28
2018-02-01T04:35:51.616Z,48.27
2018-02-01T04:38:17.420Z,48.25
2018-02-01T04:40:43.188Z,46.67
2018-02-01T04:43:08.972Z,47.69
2018-02-01T04:45:34.781Z,47.83
2018-02-01T04:48:00.553Z,47.87
2018-02-01T04:50:26.402Z,47.60
2018-02-01T04:52:52.169Z,47.26
2018-02-01T04:55:17.942Z,47.02
2018-02-01T04:57:43.709Z,47.64
2018-02-01T05:00:09.487Z,46.85
2018-02-01T05:02:35.253Z,46.70
2018-02-01T05:05:01.035Z,46.76
2018-02-01T05:07:27.712Z,46.67
2018-02-01T05:09:53.481Z,47.11
2018-02-01T05:12:19.245Z,46.91
2018-02-01T05:14:45.133Z,47.18
2018-02-01T05:17:11.865Z,46.92
2018-02-01T05:19:37.641Z,46.73
2018-02-01T05:22:03.557Z,47.04
2018-02-01T05:24:29.370Z,46.82
2018-02-01T05:26:56.073Z,46.64
2018-02-01T05:29:21.985Z,48.14
2018-02-01T05:31:47.765Z,47.98
2018-02-01T05:34:14.451Z,47.05
2018-02-01T05:36:41.284Z,47.81
2018-02-01T05:39:07.064Z,47.51
2018-02-01T05:41:33.768Z,47.35
2018-02-01T05:43:59.588Z,47.56
2018-02-01T05:46:26.163Z,47.12
2018-02-01T05:48:52.073Z,47.17
2018-02-01T05:51:17.860Z,47.51
2018-02-01T05:53:44.025Z,47.62
2018-02-01T05:56:10.697Z,46.62
2018-02-01T05:58:36.474Z,47.88
2018-02-01T06:01:02.266Z,46.53
2018-02-01T06:03:28.039Z,47.09
2018-02-01T06:05:54.686Z,47.12
2018-02-01T06:08:20.461Z,47.66
2018-02-01T06:10:46.284Z,47.03
2018-02-01T06:13:12.993Z,46.81
2018-02-01T06:15:39.734Z,46.31
2018-02-01T06:18:05.563Z,47.64
2018-02-01T06:20:32.273Z,47.86
2018-02-01T06:22:58.053Z,47.10
2018-02-01T06:25:23.869Z,47.43
2018-02-01T06:27:50.537Z,47.49
2018-02-01T06:30:17.361Z,46.87
2018-02-01T06:32:44.102Z,47.56
2018-02-01T06:35:09.872Z,47.40
2018-02-01T06:37:36.587Z,47.25
2018-02-01T06:40:03.302Z,46.76
2018-02-01T06:42:29.093Z,46.27
2018-02-01T06:44:55.809Z,46.57
2018-02-01T06:47:22.529Z,45.76
2018-02-01T06:49:48.350Z,46.62
2018-02-01T06:52:14.930Z,47.31
2018-02-01T06:54:40.709Z,47.25
2018-02-01T06:57:07.257Z,47.06
2018-02-01T06:59:33.025Z,46.01
2018-02-01T07:01:58.820Z,46.19
2018-02-01T07:04:24.596Z,45.63
2018-02-01T07:06:51.352Z,46.42
2018-02-01T07:09:18.101Z,46.81
2018-02-01T07:11:43.926Z,46.69
2018-02-01T07:14:09.684Z,46.52
2018-02-01T07:16:36.440Z,45.55
2018-02-01T07:19:02.220Z,46.11
2018-02-01T07:21:28.025Z,46.43
2018-02-01T07:23:53.836Z,46.94
2018-02-01T07:26:19.668Z,46.93
2018-02-01T07:28:45.451Z,46.81
2018-02-01T07:31:11.238Z,46.67
2018-02-01T07:33:37.013Z,45.53
2018-02-01T07:36:02.794Z,47.64
2018-02-01T07:38:28.580Z,46.12
2018-02-01T07:40:55.305Z,46.86
2018-02-01T07:43:21.097Z,46.85
2018-02-01T07:48:48.408Z,46.89
2018-02-01T07:51:15.100Z,46.04
2018-02-01T07:53:40.869Z,46.17
2018-02-01T07:56:06.664Z,46.11
2018-02-01T07:58:32.433Z,45.54
2018-02-01T08:00:58.201Z,47.05
2018-02-01T08:03:23.989Z,45.80
2018-02-01T08:05:50.740Z,46.61
2018-02-01T08:08:16.549Z,45.99
2018-02-01T08:10:42.319Z,46.25
2018-02-01T08:13:08.122Z,45.56
2018-02-01T08:15:33.897Z,47.17
2018-02-01T08:18:00.606Z,45.68
2018-02-01T08:20:26.396Z,46.88
2018-02-01T08:22:52.248Z,46.47
2018-02-01T08:25:18.018Z,46.53
2018-02-01T08:27:43.826Z,45.82
2018-02-01T08:30:09.625Z,46.46
2018-02-01T08:32:36.417Z,46.46
2018-02-01T08:35:03.226Z,45.85
2018-02-01T08:37:29.001Z,46.15
2018-02-01T08:39:54.816Z,46.69
2018-02-01T08:42:20.585Z,45.49
2018-02-01T08:44:46.373Z,45.75
2018-02-01T08:47:12.157Z,45.88
2018-02-01T08:49:37.950Z,45.45
2018-02-01T08:52:03.741Z,46.69
2018-02-01T08:54:29.541Z,46.77
2018-02-01T08:56:55.310Z,46.00
2018-02-01T08:59:21.084Z,45.76
2018-02-01T09:01:46.881Z,45.23
2018-02-01T09:04:12.661Z,44.71
2018-02-01T09:06:38.437Z,44.58
2018-02-01T09:09:04.242Z,45.04
2018-02-01T09:11:30.056Z,45.39
2018-02-01T09:13:56.885Z,45.37
2018-02-01T09:16:23.677Z,46.00
2018-02-01T09:18:49.614Z,45.78
2018-02-01T09:21:15.393Z,46.63
2018-02-01T09:23:41.460Z,44.38
2018-02-01T09:26:07.570Z,44.56
2018-02-01T09:28:33.421Z,44.56
2018-02-01T09:30:59.212Z,44.57
2018-02-01T09:33:25.026Z,45.98
2018-02-01T09:35:50.801Z,45.89
2018-02-01T09:38:17.502Z,46.37
2018-02-01T09:40:44.232Z,44.55
2018-02-01T09:43:10.305Z,45.68
2018-02-01T09:45:36.125Z,45.05
2018-02-01T09:48:02.519Z,46.32
2018-02-01T09:50:31.108Z,45.19
2018-02-01T09:52:57.593Z,45.46
2018-02-01T09:55:24.859Z,45.51
2018-02-01T09:57:51.497Z,45.45
2018-02-01T10:00:19.083Z,46.29
2018-02-01T10:02:45.690Z,45.36
2018-02-01T10:05:15.180Z,46.59
2018-02-01T10:07:41.025Z,45.66
2018-02-01T10:10:06.933Z,45.66
2018-02-01T10:12:33.783Z,44.37
2018-02-01T10:14:59.646Z,44.09
2018-02-01T10:17:26.412Z,44.09
2018-02-01T10:19:52.228Z,45.01
2018-02-01T10:22:18.043Z,45.35
2018-02-01T10:24:44.320Z,43.82
2018-02-01T10:27:10.998Z,43.98
2018-02-01T10:29:36.785Z,44.88
2018-02-01T10:32:02.554Z,44.97
2018-02-01T10:34:28.326Z,44.79
2018-02-01T10:36:54.237Z,45.41
2018-02-01T10:39:20.019Z,43.79
2018-02-01T10:41:45.841Z,45.76
2018-02-01T10:44:12.552Z,44.32
2018-02-01T10:46:38.330Z,44.79
2018-02-01T10:49:04.104Z,45.92
2018-02-01T10:51:29.889Z,44.22
2018-02-01T10:53:56.553Z,44.57
2018-02-01T10:56:23.317Z,45.35
2018-02-01T10:58:50.096Z,45.73
2018-02-01T11:01:16.825Z,44.48
2018-02-01T11:03:43.565Z,46.17
2018-02-01T11:06:10.284Z,45.43
2018-02-01T11:08:36.883Z,44.41
2018-02-01T11:11:02.657Z,44.10
2018-02-01T11:13:29.339Z,44.54
2018-02-01T11:15:55.125Z,43.75
2018-02-01T11:18:20.900Z,44.72
2018-02-01T11:20:47.610Z,44.67
2018-02-01T11:23:14.355Z,44.38
2018-02-01T11:25:40.125Z,45.47
2018-02-01T11:28:05.905Z,44.11
2018-02-01T11:30:31.682Z,44.65
2018-02-01T11:32:58.441Z,43.89
2018-02-01T11:35:24.219Z,44.54
2018-02-01T11:37:50.805Z,45.34
2018-02-01T11:40:17.574Z,44.72
2018-02-01T11:42:43.358Z,44.75
2018-02-01T11:45:10.026Z,45.26
2018-02-01T11:47:36.773Z,44.37
2018-02-01T11:50:03.529Z,45.50
2018-02-01T11:52:29.305Z,44.41
2018-02-01T11:54:55.118Z,43.44
2018-02-01T11:57:20.893Z,44.33
2018-02-01T11:59:46.665Z,44.03
2018-02-01T12:02:13.469Z,43.29
2018-02-01T12:04:39.253Z,44.86
2018-02-01T12:07:05.033Z,43.67
2018-02-01T12:09:30.818Z,44.99
2018-02-01T12:11:56.595Z,44.40
2018-02-01T12:14:22.376Z,45.67
2018-02-01T12:16:48.162Z,43.90
2018-02-01T12:19:13.939Z,43.87
2018-02-01T12:21:40.630Z,43.38
2018-02-01T12:24:06.457Z,42.94
2018-02-01T12:26:32.285Z,43.25
2018-02-01T12:28:58.067Z,45.43
2018-02-01T12:31:23.843Z,42.87
2018-02-01T12:33:49.628Z,43.80
2018-02-01T12:36:15.410Z,43.36
2018-02-01T12:38:42.205Z,44.01
2018-02-01T12:41:07.996Z,44.36
2018-02-01T12:43:33.786Z,43.46
2018-02-01T12:45:59.600Z,44.46
2018-02-01T12:48:25.405Z,43.10
2018-02-01T12:50:51.178Z,43.32
2018-02-01T12:53:16.956Z,43.25
2018-02-01T12:55:42.738Z,43.66
2018-02-01T12:58:08.515Z,44.11
2018-02-01T13:00:34.309Z,44.53
2018-02-01T13:03:00.090Z,43.42
2018-02-01T13:05:25.872Z,44.39
2018-02-01T13:07:51.646Z,44.18
2018-02-01T13:10:17.461Z,43.82
2018-02-01T13:12:43.245Z,44.38
2018-02-01T13:15:09.033Z,43.56
2018-02-01T13:17:34.857Z,43.35
2018-02-01T13:20:00.639Z,43.12
2018-02-01T13:22:26.457Z,44.48
2018-02-01T13:24:52.277Z,43.82
2018-02-01T13:27:19.065Z,44.23
2018-02-01T13:29:44.849Z,42.91
2018-02-01T13:32:11.612Z,43.76
2018-02-01T13:34:37.386Z,42.79
2018-02-01T13:37:04.043Z,43.10
2018-02-01T13:39:30.801Z,44.58
2018-02-01T13:41:57.413Z,43.98
2018-02-01T13:44:24.161Z,42.87
2018-02-01T13:46:50.850Z,42.20
2018-02-01T13:49:17.633Z,42.60
2018-02-01T13:51:43.414Z,42.53
2018-02-01T13:54:10.012Z,42.69
2018-02-01T13:56:35.827Z,43.99
2018-02-01T13:59:02.517Z,42.52
2018-02-01T14:01:28.310Z,43.35
2018-02-01T14:03:54.878Z,43.15
2018-02-01T14:06:20.657Z,43.59
2018-02-01T14:08:47.386Z,43.71
2018-02-01T14:11:13.170Z,43.22
2018-02-01T14:13:38.945Z,42.20
2018-02-01T14:16:04.761Z,42.13
2018-02-01T14:18:31.431Z,43.42
2018-02-01T14:20:58.180Z,43.28
2018-02-01T14:23:24.912Z,42.68
2018-02-01T14:25:51.641Z,43.85
2018-02-01T14:28:18.416Z,42.57
2018-02-01T14:30:45.117Z,42.08
2018-02-01T14:33:11.879Z,42.39
2018-02-01T14:35:38.384Z,43.72
2018-02-01T14:38:05.120Z,43.58
2018-02-01T14:40:30.889Z,42.42
2018-02-01T14:42:57.496Z,42.32
2018-02-01T14:45:24.193Z,42.68
2018-02-01T14:47:50.933Z,43.74
2018-02-01T14:50:17.679Z,43.10
2018-02-01T14:52:44.365Z,43.66
2018-02-01T14:55:11.166Z,43.24
2018-02-01T14:57:37.897Z,43.34
2018-02-01T15:00:04.709Z,43.46
2018-02-01T15:02:30.478Z,43.52
2018-02-01T15:04:57.249Z,43.18
2018-02-01T15:07:23.022Z,42.87
2018-02-01T15:09:49.807Z,43.91
2018-02-01T15:12:15.618Z,43.57
2018-02-01T15:14:42.244Z,44.01
2018-02-01T15:17:08.969Z,42.84
2018-02-01T15:19:35.670Z,44.87
2018-02-01T15:22:01.438Z,44.08
2018-02-01T15:24:28.125Z,44.09
2018-02-01T15:26:53.898Z,44.69
2018-02-01T15:29:19.812Z,42.98
2018-02-01T15:31:45.644Z,43.46
2018-02-01T15:34:12.384Z,42.69
2018-02-01T15:36:38.173Z,43.87
2018-02-01T15:39:04.924Z,42.54
2018-02-01T15:41:30.696Z,42.16
2018-02-01T15:43:57.452Z,43.16
2018-02-01T15:46:23.419Z,43.16
2018-02-01T15:48:50.117Z,43.79
2018-02-01T15:51:17.017Z,43.94
2018-02-01T15:53:43.793Z,43.92
2018-02-01T15:56:09.564Z,42.24
2018-02-01T15:58:35.330Z,42.18
2018-02-01T16:01:01.094Z,43.26
2018-02-01T16:03:26.865Z,44.55
2018-02-01T16:05:52.636Z,44.68
2018-02-01T16:08:18.401Z,44.11
2018-02-01T16:10:44.993Z,43.26
2018-02-01T16:13:10.763Z,42.73
2018-02-01T16:15:36.562Z,44.07
2018-02-01T16:18:02.337Z,45.42
2018-02-01T16:20:28.178Z,43.98
2018-02-01T16:22:53.956Z,43.79
2018-02-01T16:25:19.826Z,43.45
2018-02-01T16:27:46.412Z,43.11
2018-02-01T16:30:12.187Z,42.88
2018-02-01T16:32:37.957Z,44.24
2018-02-01T16:35:03.728Z,43.07
2018-02-01T16:37:29.505Z,44.11
2018-02-01T16:39:55.281Z,43.50
2018-02-01T16:42:21.062Z,43.74
2018-02-01T16:44:46.830Z,43.87
2018-02-01T16:47:12.605Z,44.02
2018-02-01T16:49:38.385Z,43.48
2018-02-01T16:52:04.161Z,42.81
2018-02-01T16:54:29.942Z,43.82
2018-02-01T16:56:55.712Z,43.80
2018-02-01T16:59:21.487Z,42.91
2018-02-01T17:01:47.253Z,43.97
2018-02-01T17:04:13.988Z,42.76
2018-02-01T17:06:39.757Z,42.84
2018-02-01T17:09:05.529Z,43.62
2018-02-01T17:11:31.300Z,44.20
2018-02-01T17:13:58.077Z,43.06
2018-02-01T17:16:23.845Z,44.13
2018-02-01T17:18:49.625Z,42.71
2018-02-01T17:21:15.501Z,41.96
2018-02-01T17:23:41.277Z,41.81
2018-02-01T17:26:07.054Z,41.47
2018-02-01T17:28:32.816Z,42.54
2018-02-01T17:30:58.589Z,41.91
2018-02-01T17:33:24.413Z,44.05
2018-02-01T17:35:51.126Z,42.99
2018-02-01T17:38:17.864Z,42.54
2018-02-01T17:40:43.669Z,42.51
2018-02-01T17:43:09.454Z,43.25
2018-02-01T17:45:35.270Z,42.98
2018-02-01T17:48:01.061Z,43.71
2018-02-01T17:50:27.885Z,43.48
2018-02-01T17:52:53.697Z,42.64
2018-02-01T17:55:19.505Z,41.93
2018-02-01T17:57:45.281Z,42.22
2018-02-01T18:00:11.095Z,43.14
2018-02-01T18:02:36.872Z,43.37
2018-02-01T18:05:02.659Z,43.00
2018-02-01T18:07:28.447Z,43.36
2018-02-01T18:09:54.261Z,42.64
2018-02-01T18:12:21.030Z,42.33
2018-02-01T18:14:47.668Z,42.84
2018-02-01T18:17:13.457Z,42.85
2018-02-01T18:19:40.062Z,41.95
2018-02-01T18:22:06.769Z,41.69
2018-02-01T18:24:32.548Z,41.95
2018-02-01T18:26:58.397Z,42.44
2018-02-01T18:29:24.183Z,42.26
2018-02-01T18:31:50.006Z,43.44
2018-02-01T18:34:15.783Z,45.28
2018-02-01T18:36:41.609Z,43.83
2018-02-01T18:39:07.393Z,43.36
2018-02-01T18:41:33.175Z,43.53
2018-02-01T18:43:58.957Z,42.92
2018-02-01T18:46:24.729Z,43.40
2018-02-01T18:48:50.606Z,43.27
2018-02-01T18:51:16.383Z,43.92
2018-02-01T18:53:42.162Z,43.92
2018-02-01T18:56:08.010Z,42.31
2018-02-01T18:58:34.037Z,43.44
2018-02-01T19:00:59.841Z,42.65
2018-02-01T19:03:25.657Z,43.41
2018-02-01T19:05:52.409Z,42.32
2018-02-01T19:08:19.174Z,43.41
2018-02-01T19:10:44.955Z,42.53
2018-02-01T19:13:10.801Z,42.15
2018-02-01T19:15:36.640Z,43.36
2018-02-01T19:18:02.421Z,42.96
2018-02-01T19:20:29.222Z,42.75
2018-02-01T19:22:54.990Z,43.01
2018-02-01T19:25:20.771Z,42.25
2018-02-01T19:27:46.550Z,42.09
2018-02-01T19:30:12.333Z,41.53
2018-02-01T19:32:38.107Z,42.28
2018-02-01T19:35:04.743Z,42.14
2018-02-01T19:37:31.489Z,42.93
2018-02-01T19:39:58.275Z,42.42
2018-02-01T19:42:25.050Z,41.99
2018-02-01T19:44:50.821Z,41.54
2018-02-01T19:47:17.521Z,41.35
2018-02-01T19:49:43.293Z,41.84
2018-02-01T19:52:09.061Z,41.49
2018-02-01T19:54:34.844Z,41.39
2018-02-01T19:57:00.621Z,41.43
2018-02-01T19:59:26.389Z,40.74
2018-02-01T20:01:52.174Z,40.58
2018-02-01T20:04:17.950Z,40.95
2018-02-01T20:06:43.721Z,41.44
2018-02-01T20:09:09.578Z,42.03
2018-02-01T20:11:35.353Z,41.14
2018-02-01T20:14:01.131Z,41.50
2018-02-01T20:16:26.898Z,41.27
2018-02-01T20:18:52.694Z,41.13
2018-02-01T20:21:18.510Z,41.87
2018-02-01T20:23:45.270Z,41.75
2018-02-01T20:26:11.121Z,43.56
2018-02-01T20:28:36.889Z,42.35
2018-02-01T20:31:03.621Z,42.93
2018-02-01T20:33:29.393Z,42.38
2018-02-01T20:35:55.169Z,42.40
2018-02-01T20:38:21.872Z,42.67
2018-02-01T20:40:47.645Z,42.40
2018-02-01T20:43:13.427Z,42.75
2018-02-01T20:45:39.205Z,42.08
2018-02-01T20:48:05.010Z,42.32
2018-02-01T20:50:30.795Z,43.65
2018-02-01T20:52:56.573Z,42.68
2018-02-01T20:55:22.354Z,41.89
2018-02-01T20:57:48.167Z,40.88
2018-02-01T21:00:13.980Z,41.25
2018-02-01T21:02:39.752Z,42.38
2018-02-01T21:05:06.452Z,42.53
2018-02-01T21:07:32.242Z,41.70
2018-02-01T21:09:58.017Z,42.39
2018-02-01T21:12:23.785Z,41.32
2018-02-01T21:14:49.558Z,41.36
2018-02-01T21:17:16.182Z,41.47
2018-02-01T21:19:42.905Z,43.35
2018-02-01T21:22:09.689Z,41.63
2018-02-01T21:24:36.470Z,42.23
2018-02-01T21:27:02.285Z,42.42
2018-02-01T21:29:28.093Z,41.41
2018-02-01T21:31:53.870Z,40.95
2018-02-01T21:34:19.681Z,40.69
2018-02-01T21:36:53.325Z,40.77
2018-02-01T21:39:19.124Z,41.21
2018-02-01T21:41:45.864Z,40.93
2018-02-01T21:44:12.649Z,40.49
2018-02-01T21:46:38.426Z,40.51
2018-02-01T21:49:04.206Z,40.94
2018-02-01T21:51:30.022Z,40.94
2018-02-01T21:53:56.845Z,41.04
2018-02-01T21:56:23.572Z,40.99
2018-02-01T21:58:49.349Z,41.36
2018-02-01T22:01:15.328Z,40.75
2018-02-01T22:03:41.110Z,40.75
2018-02-01T22:06:06.914Z,41.19
2018-02-01T22:08:32.684Z,41.05
2018-02-01T22:10:59.424Z,41.21
2018-02-01T22:13:25.338Z,42.45
2018-02-01T22:15:51.169Z,41.64
2018-02-01T22:18:17.750Z,41.57
2018-02-01T22:20:44.340Z,41.19
2018-02-01T22:23:10.168Z,42.00
2018-02-01T22:25:35.950Z,41.72
2018-02-01T22:28:01.756Z,42.50
2018-02-01T22:30:28.605Z,42.99
2018-02-01T22:32:54.404Z,44.19
2018-02-01T22:35:21.074Z,43.16
2018-02-01T22:37:46.845Z,41.70
2018-02-01T22:40:12.686Z,41.47
2018-02-01T22:42:38.506Z,42.71
2018-02-01T22:45:05.093Z,42.79
2018-02-01T22:47:31.840Z,42.62
2018-02-01T22:49:57.657Z,42.26
2018-02-01T22:52:23.418Z,41.98
2018-02-01T22:54:49.182Z,40.88
2018-02-01T22:57:15.856Z,41.67
2018-02-01T22:59:41.638Z,41.77
2018-02-01T23:02:07.412Z,41.51
2018-02-01T23:04:33.238Z,41.58
2018-02-01T23:06:59.008Z,41.84
2018-02-01T23:09:25.681Z,41.82
2018-02-01T23:11:51.456Z,41.69
2018-02-01T23:14:18.066Z,41.73
2018-02-01T23:16:43.833Z,41.62
2018-02-01T23:19:09.633Z,42.49
2018-02-01T23:21:36.373Z,43.29
2018-02-01T23:24:03.073Z,41.66
2018-02-01T23:26:29.629Z,41.82
2018-02-01T23:28:56.442Z,41.18
2018-02-01T23:31:22.216Z,42.94
2018-02-01T23:33:48.953Z,41.90
2018-02-01T23:36:15.836Z,42.71
2018-02-01T23:38:42.552Z,43.39
2018-02-01T23:41:09.230Z,43.60
2018-02-01T23:43:35.038Z,42.53
2018-02-01T23:46:01.674Z,41.19
2018-02-01T23:48:28.403Z,40.83
2018-02-01T23:50:54.177Z,40.74
2018-02-01T23:53:19.981Z,41.31
2018-02-01T23:55:45.749Z,41.63
2018-02-01T23:58:11.550Z,41.12
